sensor_id;sensor_type;location;lat;lon;timestamp;P1;durP1;ratioP1;P2;durP2;ratioP2
39032;SDS011;24794;51.982;5.878;2023-12-28T00:00:16;6.05;;;2.40;;
39032;SDS011;24794;51.982;5.878;2023-12-28T00:01:17;4.90;;;2.63;;
39032;SDS011;24794;51.982;5.878;2023-12-28T00:02:18;6.78;;;2.20;;
39032;SDS011;24794;51.982;5.878;2023-12-28T00:03:18;2.83;;;2.10;;
39032;SDS011;24794;51.982;5.878;2023-12-28T00:04:19;4.90;;;2.15;;
39032;SDS011;24794;51.982;5.878;2023-12-28T00:05:19;3.67;;;2.20;;
39032;SDS011;24794;51.982;5.878;2023-12-28T00:06:20;3.78;;;2.10;;
39032;SDS011;24794;51.982;5.878;2023-12-28T00:07:20;5.72;;;2.03;;
39032;SDS011;24794;51.982;5.878;2023-12-28T00:08:21;4.18;;;2.15;;
39032;SDS011;24794;51.982;5.878;2023-12-28T00:09:21;5.25;;;2.20;;
39032;SDS011;24794;51.982;5.878;2023-12-28T00:10:23;5.15;;;2.28;;
39032;SDS011;24794;51.982;5.878;2023-12-28T00:11:24;3.63;;;2.30;;
39032;SDS011;24794;51.982;5.878;2023-12-28T00:12:24;5.20;;;2.50;;
39032;SDS011;24794;51.982;5.878;2023-12-28T00:13:25;4.90;;;2.30;;
39032;SDS011;24794;51.982;5.878;2023-12-28T00:14:25;4.88;;;2.47;;
39032;SDS011;24794;51.982;5.878;2023-12-28T00:15:26;7.32;;;2.70;;
39032;SDS011;24794;51.982;5.878;2023-12-28T00:16:27;7.22;;;2.35;;
39032;SDS011;24794;51.982;5.878;2023-12-28T00:17:28;3.97;;;2.38;;
39032;SDS011;24794;51.982;5.878;2023-12-28T00:18:28;5.43;;;2.22;;
39032;SDS011;24794;51.982;5.878;2023-12-28T00:19:29;3.05;;;2.20;;
39032;SDS011;24794;51.982;5.878;2023-12-28T00:20:29;6.82;;;2.40;;
39032;SDS011;24794;51.982;5.878;2023-12-28T00:21:30;3.88;;;2.60;;
39032;SDS011;24794;51.982;5.878;2023-12-28T00:22:30;5.30;;;2.50;;
39032;SDS011;24794;51.982;5.878;2023-12-28T00:23:31;6.70;;;2.25;;
39032;SDS011;24794;51.982;5.878;2023-12-28T00:24:32;6.80;;;2.65;;
39032;SDS011;24794;51.982;5.878;2023-12-28T00:25:32;5.93;;;2.63;;
39032;SDS011;24794;51.982;5.878;2023-12-28T00:26:33;5.47;;;2.38;;
39032;SDS011;24794;51.982;5.878;2023-12-28T00:27:33;4.50;;;2.58;;
39032;SDS011;24794;51.982;5.878;2023-12-28T00:28:35;3.88;;;2.33;;
39032;SDS011;24794;51.982;5.878;2023-12-28T00:29:35;5.18;;;2.63;;
39032;SDS011;24794;51.982;5.878;2023-12-28T00:30:38;7.38;;;2.35;;
39032;SDS011;24794;51.982;5.878;2023-12-28T00:31:39;5.35;;;2.65;;
39032;SDS011;24794;51.982;5.878;2023-12-28T00:32:39;6.60;;;2.58;;
39032;SDS011;24794;51.982;5.878;2023-12-28T00:33:43;6.45;;;2.75;;
39032;SDS011;24794;51.982;5.878;2023-12-28T00:34:44;3.90;;;2.25;;
39032;SDS011;24794;51.982;5.878;2023-12-28T00:35:44;5.07;;;2.58;;
39032;SDS011;24794;51.982;5.878;2023-12-28T00:36:45;4.50;;;2.35;;
39032;SDS011;24794;51.982;5.878;2023-12-28T00:37:45;3.40;;;2.33;;
39032;SDS011;24794;51.982;5.878;2023-12-28T00:38:46;5.88;;;2.90;;
39032;SDS011;24794;51.982;5.878;2023-12-28T00:39:46;4.80;;;2.38;;
39032;SDS011;24794;51.982;5.878;2023-12-28T00:40:49;4.35;;;2.72;;
39032;SDS011;24794;51.982;5.878;2023-12-28T00:41:50;5.72;;;2.50;;
39032;SDS011;24794;51.982;5.878;2023-12-28T00:42:50;4.25;;;2.42;;
39032;SDS011;24794;51.982;5.878;2023-12-28T00:43:51;6.70;;;2.83;;
39032;SDS011;24794;51.982;5.878;2023-12-28T00:44:51;4.60;;;2.80;;
39032;SDS011;24794;51.982;5.878;2023-12-28T00:45:53;5.32;;;2.35;;
39032;SDS011;24794;51.982;5.878;2023-12-28T00:46:53;6.65;;;2.70;;
39032;SDS011;24794;51.982;5.878;2023-12-28T00:47:54;3.67;;;2.30;;
39032;SDS011;24794;51.982;5.878;2023-12-28T00:48:56;3.67;;;2.55;;
39032;SDS011;24794;51.982;5.878;2023-12-28T00:49:57;4.15;;;2.70;;
39032;SDS011;24794;51.982;5.878;2023-12-28T00:50:57;5.50;;;2.80;;
39032;SDS011;24794;51.982;5.878;2023-12-28T00:52:01;7.32;;;2.80;;
39032;SDS011;24794;51.982;5.878;2023-12-28T00:53:01;3.70;;;2.53;;
39032;SDS011;24794;51.982;5.878;2023-12-28T00:54:02;5.63;;;2.88;;
39032;SDS011;24794;51.982;5.878;2023-12-28T00:55:03;5.72;;;2.80;;
39032;SDS011;24794;51.982;5.878;2023-12-28T00:56:04;4.57;;;3.05;;
39032;SDS011;24794;51.982;5.878;2023-12-28T00:57:05;4.85;;;2.92;;
39032;SDS011;24794;51.982;5.878;2023-12-28T00:58:05;6.35;;;3.45;;
39032;SDS011;24794;51.982;5.878;2023-12-28T00:59:06;5.70;;;2.90;;
39032;SDS011;24794;51.982;5.878;2023-12-28T01:00:07;5.43;;;3.88;;
39032;SDS011;24794;51.982;5.878;2023-12-28T01:01:08;8.32;;;6.20;;
39032;SDS011;24794;51.982;5.878;2023-12-28T01:02:09;5.82;;;3.45;;
39032;SDS011;24794;51.982;5.878;2023-12-28T01:03:09;9.10;;;5.93;;
39032;SDS011;24794;51.982;5.878;2023-12-28T01:04:10;7.40;;;6.30;;
39032;SDS011;24794;51.982;5.878;2023-12-28T01:05:11;7.07;;;4.95;;
39032;SDS011;24794;51.982;5.878;2023-12-28T01:06:11;9.80;;;4.72;;
39032;SDS011;24794;51.982;5.878;2023-12-28T01:07:12;10.38;;;9.23;;
39032;SDS011;24794;51.982;5.878;2023-12-28T01:08:12;8.82;;;4.65;;
39032;SDS011;24794;51.982;5.878;2023-12-28T01:09:13;8.20;;;6.68;;
39032;SDS011;24794;51.982;5.878;2023-12-28T01:10:13;15.10;;;10.02;;
39032;SDS011;24794;51.982;5.878;2023-12-28T01:11:14;8.10;;;6.40;;
39032;SDS011;24794;51.982;5.878;2023-12-28T01:12:15;7.38;;;3.95;;
39032;SDS011;24794;51.982;5.878;2023-12-28T01:13:15;5.65;;;4.07;;
39032;SDS011;24794;51.982;5.878;2023-12-28T01:14:16;5.30;;;3.90;;
39032;SDS011;24794;51.982;5.878;2023-12-28T01:15:17;6.88;;;4.30;;
39032;SDS011;24794;51.982;5.878;2023-12-28T01:16:17;9.40;;;4.88;;
39032;SDS011;24794;51.982;5.878;2023-12-28T01:17:18;7.10;;;4.97;;
39032;SDS011;24794;51.982;5.878;2023-12-28T01:18:19;5.15;;;3.20;;
39032;SDS011;24794;51.982;5.878;2023-12-28T01:19:20;5.82;;;4.10;;
39032;SDS011;24794;51.982;5.878;2023-12-28T01:20:21;5.80;;;2.80;;
39032;SDS011;24794;51.982;5.878;2023-12-28T01:21:22;5.28;;;3.30;;
39032;SDS011;24794;51.982;5.878;2023-12-28T01:22:22;7.70;;;3.42;;
39032;SDS011;24794;51.982;5.878;2023-12-28T01:23:23;4.95;;;2.60;;
39032;SDS011;24794;51.982;5.878;2023-12-28T01:24:23;7.22;;;3.33;;
39032;SDS011;24794;51.982;5.878;2023-12-28T01:25:25;6.97;;;2.80;;
39032;SDS011;24794;51.982;5.878;2023-12-28T01:26:25;6.43;;;3.05;;
39032;SDS011;24794;51.982;5.878;2023-12-28T01:27:26;4.45;;;2.85;;
39032;SDS011;24794;51.982;5.878;2023-12-28T01:28:26;5.47;;;2.30;;
39032;SDS011;24794;51.982;5.878;2023-12-28T01:29:27;5.28;;;3.10;;
39032;SDS011;24794;51.982;5.878;2023-12-28T01:30:28;6.30;;;2.80;;
39032;SDS011;24794;51.982;5.878;2023-12-28T01:31:28;5.53;;;2.35;;
39032;SDS011;24794;51.982;5.878;2023-12-28T01:32:29;4.80;;;2.17;;
39032;SDS011;24794;51.982;5.878;2023-12-28T01:33:30;4.70;;;2.45;;
39032;SDS011;24794;51.982;5.878;2023-12-28T01:34:30;6.30;;;2.75;;
39032;SDS011;24794;51.982;5.878;2023-12-28T01:35:31;5.43;;;2.35;;
39032;SDS011;24794;51.982;5.878;2023-12-28T01:36:31;6.07;;;2.60;;
39032;SDS011;24794;51.982;5.878;2023-12-28T01:37:32;5.95;;;2.90;;
39032;SDS011;24794;51.982;5.878;2023-12-28T01:38:33;6.40;;;2.72;;
39032;SDS011;24794;51.982;5.878;2023-12-28T01:39:34;5.55;;;2.42;;
39032;SDS011;24794;51.982;5.878;2023-12-28T01:40:34;4.72;;;2.60;;
39032;SDS011;24794;51.982;5.878;2023-12-28T01:41:35;4.45;;;2.58;;
39032;SDS011;24794;51.982;5.878;2023-12-28T01:42:35;4.82;;;2.65;;
39032;SDS011;24794;51.982;5.878;2023-12-28T01:43:36;5.63;;;2.78;;
39032;SDS011;24794;51.982;5.878;2023-12-28T01:44:36;6.03;;;3.00;;
39032;SDS011;24794;51.982;5.878;2023-12-28T01:45:37;5.05;;;2.35;;
39032;SDS011;24794;51.982;5.878;2023-12-28T01:46:37;4.60;;;2.50;;
39032;SDS011;24794;51.982;5.878;2023-12-28T01:47:39;5.30;;;2.45;;
39032;SDS011;24794;51.982;5.878;2023-12-28T01:48:40;5.25;;;2.45;;
39032;SDS011;24794;51.982;5.878;2023-12-28T01:49:43;5.75;;;2.70;;
39032;SDS011;24794;51.982;5.878;2023-12-28T01:50:44;8.70;;;2.58;;
39032;SDS011;24794;51.982;5.878;2023-12-28T01:51:44;5.50;;;2.70;;
39032;SDS011;24794;51.982;5.878;2023-12-28T01:52:46;4.90;;;2.58;;
39032;SDS011;24794;51.982;5.878;2023-12-28T01:53:47;6.15;;;2.75;;
39032;SDS011;24794;51.982;5.878;2023-12-28T01:54:49;6.90;;;2.47;;
39032;SDS011;24794;51.982;5.878;2023-12-28T01:55:50;7.63;;;2.65;;
39032;SDS011;24794;51.982;5.878;2023-12-28T01:56:51;6.00;;;2.72;;
39032;SDS011;24794;51.982;5.878;2023-12-28T01:57:52;6.57;;;2.85;;
39032;SDS011;24794;51.982;5.878;2023-12-28T01:58:54;6.57;;;2.58;;
39032;SDS011;24794;51.982;5.878;2023-12-28T01:59:55;5.95;;;2.58;;
39032;SDS011;24794;51.982;5.878;2023-12-28T02:01:01;4.95;;;2.53;;
39032;SDS011;24794;51.982;5.878;2023-12-28T02:02:02;7.50;;;2.65;;
39032;SDS011;24794;51.982;5.878;2023-12-28T02:03:02;3.13;;;2.42;;
39032;SDS011;24794;51.982;5.878;2023-12-28T02:04:03;7.28;;;2.67;;
39032;SDS011;24794;51.982;5.878;2023-12-28T02:05:04;7.00;;;3.03;;
39032;SDS011;24794;51.982;5.878;2023-12-28T02:06:08;5.00;;;2.35;;
39032;SDS011;24794;51.982;5.878;2023-12-28T02:07:09;5.07;;;2.72;;
39032;SDS011;24794;51.982;5.878;2023-12-28T02:08:13;7.95;;;3.50;;
39032;SDS011;24794;51.982;5.878;2023-12-28T02:09:14;6.82;;;2.70;;
39032;SDS011;24794;51.982;5.878;2023-12-28T02:10:15;5.18;;;2.75;;
39032;SDS011;24794;51.982;5.878;2023-12-28T02:11:15;5.97;;;2.55;;
39032;SDS011;24794;51.982;5.878;2023-12-28T02:12:16;3.53;;;2.28;;
39032;SDS011;24794;51.982;5.878;2023-12-28T02:13:17;4.70;;;3.00;;
39032;SDS011;24794;51.982;5.878;2023-12-28T02:14:17;4.95;;;2.80;;
39032;SDS011;24794;51.982;5.878;2023-12-28T02:15:19;6.03;;;2.95;;
39032;SDS011;24794;51.982;5.878;2023-12-28T02:16:30;7.90;;;2.97;;
39032;SDS011;24794;51.982;5.878;2023-12-28T02:17:38;7.43;;;2.55;;
39032;SDS011;24794;51.982;5.878;2023-12-28T02:18:47;6.65;;;2.83;;
39032;SDS011;24794;51.982;5.878;2023-12-28T02:19:52;4.85;;;2.50;;
39032;SDS011;24794;51.982;5.878;2023-12-28T02:20:54;4.60;;;2.72;;
39032;SDS011;24794;51.982;5.878;2023-12-28T02:21:58;7.07;;;2.60;;
39032;SDS011;24794;51.982;5.878;2023-12-28T02:22:59;6.85;;;2.30;;
39032;SDS011;24794;51.982;5.878;2023-12-28T02:24:00;4.57;;;2.60;;
39032;SDS011;24794;51.982;5.878;2023-12-28T02:26:08;6.78;;;2.95;;
39032;SDS011;24794;51.982;5.878;2023-12-28T02:27:09;3.95;;;2.22;;
39032;SDS011;24794;51.982;5.878;2023-12-28T02:28:09;4.13;;;2.40;;
39032;SDS011;24794;51.982;5.878;2023-12-28T02:29:10;4.88;;;2.83;;
39032;SDS011;24794;51.982;5.878;2023-12-28T02:30:10;6.60;;;2.83;;
39032;SDS011;24794;51.982;5.878;2023-12-28T02:31:14;5.18;;;2.70;;
39032;SDS011;24794;51.982;5.878;2023-12-28T02:33:59;8.38;;;2.90;;
39032;SDS011;24794;51.982;5.878;2023-12-28T02:35:20;6.13;;;2.50;;
39032;SDS011;24794;51.982;5.878;2023-12-28T02:36:25;4.80;;;2.55;;
39032;SDS011;24794;51.982;5.878;2023-12-28T02:37:27;7.15;;;2.70;;
39032;SDS011;24794;51.982;5.878;2023-12-28T02:38:29;6.38;;;2.60;;
39032;SDS011;24794;51.982;5.878;2023-12-28T02:39:30;8.25;;;2.83;;
39032;SDS011;24794;51.982;5.878;2023-12-28T02:40:34;5.10;;;2.65;;
39032;SDS011;24794;51.982;5.878;2023-12-28T02:41:40;5.95;;;2.40;;
39032;SDS011;24794;51.982;5.878;2023-12-28T02:42:42;7.10;;;2.80;;
39032;SDS011;24794;51.982;5.878;2023-12-28T02:43:43;6.03;;;2.63;;
39032;SDS011;24794;51.982;5.878;2023-12-28T02:44:43;6.80;;;2.50;;
39032;SDS011;24794;51.982;5.878;2023-12-28T02:45:44;9.50;;;2.97;;
39032;SDS011;24794;51.982;5.878;2023-12-28T02:46:45;6.18;;;2.60;;
39032;SDS011;24794;51.982;5.878;2023-12-28T02:47:45;4.78;;;2.70;;
39032;SDS011;24794;51.982;5.878;2023-12-28T02:48:46;10.23;;;2.90;;
39032;SDS011;24794;51.982;5.878;2023-12-28T02:49:47;5.30;;;2.45;;
39032;SDS011;24794;51.982;5.878;2023-12-28T02:50:47;6.70;;;2.10;;
39032;SDS011;24794;51.982;5.878;2023-12-28T02:51:48;7.93;;;2.80;;
39032;SDS011;24794;51.982;5.878;2023-12-28T02:52:48;8.18;;;2.47;;
39032;SDS011;24794;51.982;5.878;2023-12-28T02:53:49;6.90;;;2.28;;
39032;SDS011;24794;51.982;5.878;2023-12-28T02:54:49;5.60;;;2.42;;
39032;SDS011;24794;51.982;5.878;2023-12-28T02:55:50;4.75;;;2.30;;
39032;SDS011;24794;51.982;5.878;2023-12-28T02:56:50;4.03;;;2.33;;
39032;SDS011;24794;51.982;5.878;2023-12-28T02:57:51;7.65;;;2.65;;
39032;SDS011;24794;51.982;5.878;2023-12-28T02:58:59;7.18;;;2.50;;
39032;SDS011;24794;51.982;5.878;2023-12-28T03:00:00;7.18;;;2.15;;
39032;SDS011;24794;51.982;5.878;2023-12-28T03:01:02;7.32;;;2.47;;
39032;SDS011;24794;51.982;5.878;2023-12-28T03:02:03;7.15;;;2.22;;
39032;SDS011;24794;51.982;5.878;2023-12-28T03:03:03;5.63;;;2.40;;
39032;SDS011;24794;51.982;5.878;2023-12-28T03:04:04;9.13;;;2.78;;
39032;SDS011;24794;51.982;5.878;2023-12-28T03:05:05;5.28;;;2.22;;
39032;SDS011;24794;51.982;5.878;2023-12-28T03:06:06;7.18;;;2.28;;
39032;SDS011;24794;51.982;5.878;2023-12-28T03:07:07;6.18;;;2.40;;
39032;SDS011;24794;51.982;5.878;2023-12-28T03:08:08;6.30;;;2.10;;
39032;SDS011;24794;51.982;5.878;2023-12-28T03:09:09;6.35;;;2.40;;
39032;SDS011;24794;51.982;5.878;2023-12-28T03:10:09;5.80;;;2.10;;
39032;SDS011;24794;51.982;5.878;2023-12-28T03:11:14;5.03;;;2.00;;
39032;SDS011;24794;51.982;5.878;2023-12-28T03:12:15;6.60;;;2.20;;
39032;SDS011;24794;51.982;5.878;2023-12-28T03:13:16;5.45;;;2.10;;
39032;SDS011;24794;51.982;5.878;2023-12-28T03:14:16;6.78;;;2.40;;
39032;SDS011;24794;51.982;5.878;2023-12-28T03:15:17;4.72;;;1.90;;
39032;SDS011;24794;51.982;5.878;2023-12-28T03:16:18;6.78;;;2.08;;
39032;SDS011;24794;51.982;5.878;2023-12-28T03:17:18;5.63;;;2.05;;
39032;SDS011;24794;51.982;5.878;2023-12-28T03:18:19;7.25;;;2.33;;
39032;SDS011;24794;51.982;5.878;2023-12-28T03:19:19;5.07;;;2.10;;
39032;SDS011;24794;51.982;5.878;2023-12-28T03:20:20;6.60;;;2.45;;
39032;SDS011;24794;51.982;5.878;2023-12-28T03:21:21;4.63;;;1.95;;
39032;SDS011;24794;51.982;5.878;2023-12-28T03:22:22;5.80;;;2.22;;
39032;SDS011;24794;51.982;5.878;2023-12-28T03:23:22;8.20;;;2.22;;
39032;SDS011;24794;51.982;5.878;2023-12-28T03:24:23;6.05;;;2.45;;
39032;SDS011;24794;51.982;5.878;2023-12-28T03:25:23;7.95;;;2.22;;
39032;SDS011;24794;51.982;5.878;2023-12-28T03:26:24;8.38;;;2.03;;
39032;SDS011;24794;51.982;5.878;2023-12-28T03:27:24;5.93;;;2.33;;
39032;SDS011;24794;51.982;5.878;2023-12-28T03:28:25;6.55;;;1.80;;
39032;SDS011;24794;51.982;5.878;2023-12-28T03:29:26;5.65;;;2.10;;
39032;SDS011;24794;51.982;5.878;2023-12-28T03:30:27;6.70;;;1.92;;
39032;SDS011;24794;51.982;5.878;2023-12-28T03:31:28;7.38;;;2.55;;
39032;SDS011;24794;51.982;5.878;2023-12-28T03:32:29;5.97;;;2.00;;
39032;SDS011;24794;51.982;5.878;2023-12-28T03:33:29;4.05;;;1.83;;
39032;SDS011;24794;51.982;5.878;2023-12-28T03:34:30;6.50;;;1.75;;
39032;SDS011;24794;51.982;5.878;2023-12-28T03:35:30;7.03;;;2.05;;
39032;SDS011;24794;51.982;5.878;2023-12-28T03:36:31;8.07;;;2.20;;
39032;SDS011;24794;51.982;5.878;2023-12-28T03:37:31;3.50;;;1.95;;
39032;SDS011;24794;51.982;5.878;2023-12-28T03:38:32;5.57;;;1.85;;
39032;SDS011;24794;51.982;5.878;2023-12-28T03:39:32;7.80;;;2.20;;
39032;SDS011;24794;51.982;5.878;2023-12-28T03:40:34;3.70;;;1.77;;
39032;SDS011;24794;51.982;5.878;2023-12-28T03:41:34;4.97;;;1.83;;
39032;SDS011;24794;51.982;5.878;2023-12-28T03:42:35;7.18;;;2.40;;
39032;SDS011;24794;51.982;5.878;2023-12-28T03:43:35;4.38;;;1.83;;
39032;SDS011;24794;51.982;5.878;2023-12-28T03:44:36;6.68;;;2.30;;
39032;SDS011;24794;51.982;5.878;2023-12-28T03:45:36;13.93;;;2.25;;
39032;SDS011;24794;51.982;5.878;2023-12-28T03:46:37;6.05;;;2.10;;
39032;SDS011;24794;51.982;5.878;2023-12-28T03:47:37;5.60;;;2.03;;
39032;SDS011;24794;51.982;5.878;2023-12-28T03:48:38;7.15;;;2.42;;
39032;SDS011;24794;51.982;5.878;2023-12-28T03:49:39;11.07;;;2.15;;
39032;SDS011;24794;51.982;5.878;2023-12-28T03:50:39;8.45;;;2.40;;
39032;SDS011;24794;51.982;5.878;2023-12-28T03:51:40;9.57;;;2.55;;
39032;SDS011;24794;51.982;5.878;2023-12-28T03:52:40;8.15;;;2.90;;
39032;SDS011;24794;51.982;5.878;2023-12-28T03:53:44;5.88;;;2.40;;
39032;SDS011;24794;51.982;5.878;2023-12-28T03:54:45;8.60;;;2.58;;
39032;SDS011;24794;51.982;5.878;2023-12-28T03:55:45;9.88;;;4.25;;
39032;SDS011;24794;51.982;5.878;2023-12-28T03:56:46;6.82;;;3.08;;
39032;SDS011;24794;51.982;5.878;2023-12-28T03:57:46;9.35;;;4.43;;
39032;SDS011;24794;51.982;5.878;2023-12-28T03:58:47;9.60;;;4.40;;
39032;SDS011;24794;51.982;5.878;2023-12-28T03:59:48;11.20;;;6.60;;
39032;SDS011;24794;51.982;5.878;2023-12-28T04:00:49;9.07;;;4.50;;
39032;SDS011;24794;51.982;5.878;2023-12-28T04:01:49;8.93;;;3.65;;
39032;SDS011;24794;51.982;5.878;2023-12-28T04:02:50;7.38;;;4.45;;
39032;SDS011;24794;51.982;5.878;2023-12-28T04:03:50;10.95;;;7.35;;
39032;SDS011;24794;51.982;5.878;2023-12-28T04:04:51;7.57;;;5.65;;
39032;SDS011;24794;51.982;5.878;2023-12-28T04:05:52;11.20;;;5.40;;
39032;SDS011;24794;51.982;5.878;2023-12-28T04:06:53;10.38;;;5.90;;
39032;SDS011;24794;51.982;5.878;2023-12-28T04:07:53;9.32;;;5.13;;
39032;SDS011;24794;51.982;5.878;2023-12-28T04:08:54;12.98;;;5.32;;
39032;SDS011;24794;51.982;5.878;2023-12-28T04:09:54;13.48;;;3.35;;
39032;SDS011;24794;51.982;5.878;2023-12-28T04:10:56;8.55;;;3.10;;
39032;SDS011;24794;51.982;5.878;2023-12-28T04:11:56;14.73;;;3.67;;
39032;SDS011;24794;51.982;5.878;2023-12-28T04:12:57;8.27;;;3.15;;
39032;SDS011;24794;51.982;5.878;2023-12-28T04:13:59;12.45;;;3.05;;
39032;SDS011;24794;51.982;5.878;2023-12-28T04:14:59;9.90;;;3.03;;
39032;SDS011;24794;51.982;5.878;2023-12-28T04:16:00;7.13;;;2.70;;
39032;SDS011;24794;51.982;5.878;2023-12-28T04:17:01;9.05;;;2.70;;
39032;SDS011;24794;51.982;5.878;2023-12-28T04:18:01;8.82;;;2.25;;
39032;SDS011;24794;51.982;5.878;2023-12-28T04:19:02;9.43;;;1.67;;
39032;SDS011;24794;51.982;5.878;2023-12-28T04:20:02;10.85;;;2.30;;
39032;SDS011;24794;51.982;5.878;2023-12-28T04:21:03;6.47;;;1.98;;
39032;SDS011;24794;51.982;5.878;2023-12-28T04:22:07;10.20;;;2.08;;
39032;SDS011;24794;51.982;5.878;2023-12-28T04:23:07;10.75;;;2.30;;
39032;SDS011;24794;51.982;5.878;2023-12-28T04:24:08;8.45;;;2.30;;
39032;SDS011;24794;51.982;5.878;2023-12-28T04:25:09;6.57;;;2.00;;
39032;SDS011;24794;51.982;5.878;2023-12-28T04:26:10;8.80;;;2.00;;
39032;SDS011;24794;51.982;5.878;2023-12-28T04:27:10;11.35;;;2.10;;
39032;SDS011;24794;51.982;5.878;2023-12-28T04:28:12;6.63;;;2.20;;
39032;SDS011;24794;51.982;5.878;2023-12-28T04:29:12;7.45;;;1.95;;
39032;SDS011;24794;51.982;5.878;2023-12-28T04:30:13;10.57;;;2.17;;
39032;SDS011;24794;51.982;5.878;2023-12-28T04:31:14;9.73;;;1.98;;
39032;SDS011;24794;51.982;5.878;2023-12-28T04:32:14;10.88;;;2.25;;
39032;SDS011;24794;51.982;5.878;2023-12-28T04:33:16;12.00;;;2.25;;
39032;SDS011;24794;51.982;5.878;2023-12-28T04:34:18;8.85;;;1.80;;
39032;SDS011;24794;51.982;5.878;2023-12-28T04:35:18;15.10;;;2.20;;
39032;SDS011;24794;51.982;5.878;2023-12-28T04:36:19;8.23;;;2.25;;
39032;SDS011;24794;51.982;5.878;2023-12-28T04:37:20;12.80;;;2.58;;
39032;SDS011;24794;51.982;5.878;2023-12-28T04:38:20;8.75;;;1.85;;
39032;SDS011;24794;51.982;5.878;2023-12-28T04:39:21;10.95;;;2.55;;
39032;SDS011;24794;51.982;5.878;2023-12-28T04:40:21;8.88;;;1.83;;
39032;SDS011;24794;51.982;5.878;2023-12-28T04:41:22;8.02;;;2.17;;
39032;SDS011;24794;51.982;5.878;2023-12-28T04:42:22;7.18;;;2.17;;
39032;SDS011;24794;51.982;5.878;2023-12-28T04:43:23;9.68;;;2.15;;
39032;SDS011;24794;51.982;5.878;2023-12-28T04:44:23;8.85;;;1.70;;
39032;SDS011;24794;51.982;5.878;2023-12-28T04:45:25;10.75;;;1.95;;
39032;SDS011;24794;51.982;5.878;2023-12-28T04:46:28;8.07;;;2.15;;
39032;SDS011;24794;51.982;5.878;2023-12-28T04:47:28;9.32;;;2.13;;
39032;SDS011;24794;51.982;5.878;2023-12-28T04:48:29;11.13;;;1.98;;
39032;SDS011;24794;51.982;5.878;2023-12-28T04:49:29;14.48;;;2.17;;
39032;SDS011;24794;51.982;5.878;2023-12-28T04:50:30;11.00;;;2.10;;
39032;SDS011;24794;51.982;5.878;2023-12-28T04:51:31;7.10;;;1.73;;
39032;SDS011;24794;51.982;5.878;2023-12-28T04:52:31;13.32;;;2.10;;
39032;SDS011;24794;51.982;5.878;2023-12-28T04:53:32;13.02;;;2.40;;
39032;SDS011;24794;51.982;5.878;2023-12-28T04:54:33;11.90;;;2.17;;
39032;SDS011;24794;51.982;5.878;2023-12-28T04:55:34;8.93;;;2.00;;
39032;SDS011;24794;51.982;5.878;2023-12-28T04:56:34;13.38;;;2.33;;
39032;SDS011;24794;51.982;5.878;2023-12-28T04:57:35;13.02;;;2.35;;
39032;SDS011;24794;51.982;5.878;2023-12-28T04:58:35;11.93;;;2.20;;
39032;SDS011;24794;51.982;5.878;2023-12-28T04:59:39;9.60;;;2.15;;
39032;SDS011;24794;51.982;5.878;2023-12-28T05:00:40;13.65;;;2.38;;
39032;SDS011;24794;51.982;5.878;2023-12-28T05:01:44;12.90;;;2.33;;
39032;SDS011;24794;51.982;5.878;2023-12-28T05:02:45;11.20;;;2.13;;
39032;SDS011;24794;51.982;5.878;2023-12-28T05:03:45;10.55;;;2.08;;
39032;SDS011;24794;51.982;5.878;2023-12-28T05:04:46;17.92;;;2.35;;
39032;SDS011;24794;51.982;5.878;2023-12-28T05:05:46;11.23;;;2.15;;
39032;SDS011;24794;51.982;5.878;2023-12-28T05:06:47;11.07;;;2.35;;
39032;SDS011;24794;51.982;5.878;2023-12-28T05:07:47;10.20;;;2.30;;
39032;SDS011;24794;51.982;5.878;2023-12-28T05:08:48;8.32;;;1.88;;
39032;SDS011;24794;51.982;5.878;2023-12-28T05:09:48;8.52;;;2.28;;
39032;SDS011;24794;51.982;5.878;2023-12-28T05:10:49;11.93;;;2.38;;
39032;SDS011;24794;51.982;5.878;2023-12-28T05:11:49;12.18;;;2.28;;
39032;SDS011;24794;51.982;5.878;2023-12-28T05:12:50;12.43;;;2.35;;
39032;SDS011;24794;51.982;5.878;2023-12-28T05:13:50;12.68;;;1.90;;
39032;SDS011;24794;51.982;5.878;2023-12-28T05:14:51;19.00;;;2.55;;
39032;SDS011;24794;51.982;5.878;2023-12-28T05:15:51;9.55;;;2.13;;
39032;SDS011;24794;51.982;5.878;2023-12-28T05:16:52;11.15;;;1.90;;
39032;SDS011;24794;51.982;5.878;2023-12-28T05:17:52;9.05;;;1.83;;
39032;SDS011;24794;51.982;5.878;2023-12-28T05:18:53;12.75;;;2.20;;
39032;SDS011;24794;51.982;5.878;2023-12-28T05:19:54;12.63;;;1.90;;
39032;SDS011;24794;51.982;5.878;2023-12-28T05:20:56;10.70;;;2.13;;
39032;SDS011;24794;51.982;5.878;2023-12-28T05:21:56;11.05;;;2.30;;
39032;SDS011;24794;51.982;5.878;2023-12-28T05:22:57;11.13;;;2.20;;
39032;SDS011;24794;51.982;5.878;2023-12-28T05:23:57;13.23;;;2.17;;
39032;SDS011;24794;51.982;5.878;2023-12-28T05:24:58;12.82;;;2.28;;
39032;SDS011;24794;51.982;5.878;2023-12-28T05:25:58;13.05;;;2.25;;
39032;SDS011;24794;51.982;5.878;2023-12-28T05:26:59;10.25;;;1.83;;
39032;SDS011;24794;51.982;5.878;2023-12-28T05:27:59;7.93;;;2.08;;
39032;SDS011;24794;51.982;5.878;2023-12-28T05:29:00;10.48;;;2.33;;
39032;SDS011;24794;51.982;5.878;2023-12-28T05:30:00;15.18;;;2.47;;
39032;SDS011;24794;51.982;5.878;2023-12-28T05:31:01;13.73;;;2.00;;
39032;SDS011;24794;51.982;5.878;2023-12-28T05:32:02;12.65;;;2.25;;
39032;SDS011;24794;51.982;5.878;2023-12-28T05:33:04;12.35;;;2.67;;
39032;SDS011;24794;51.982;5.878;2023-12-28T05:34:04;8.82;;;2.15;;
39032;SDS011;24794;51.982;5.878;2023-12-28T05:35:06;11.35;;;2.05;;
39032;SDS011;24794;51.982;5.878;2023-12-28T05:36:07;7.43;;;1.90;;
39032;SDS011;24794;51.982;5.878;2023-12-28T05:37:07;15.50;;;2.38;;
39032;SDS011;24794;51.982;5.878;2023-12-28T05:38:08;13.93;;;2.38;;
39032;SDS011;24794;51.982;5.878;2023-12-28T05:39:09;14.25;;;2.20;;
39032;SDS011;24794;51.982;5.878;2023-12-28T05:40:09;12.05;;;2.03;;
39032;SDS011;24794;51.982;5.878;2023-12-28T05:41:10;14.10;;;2.58;;
39032;SDS011;24794;51.982;5.878;2023-12-28T05:42:11;21.77;;;2.65;;
39032;SDS011;24794;51.982;5.878;2023-12-28T05:43:12;11.25;;;2.40;;
39032;SDS011;24794;51.982;5.878;2023-12-28T05:44:13;17.10;;;2.72;;
39032;SDS011;24794;51.982;5.878;2023-12-28T05:45:14;13.68;;;2.78;;
39032;SDS011;24794;51.982;5.878;2023-12-28T05:46:14;7.85;;;2.17;;
39032;SDS011;24794;51.982;5.878;2023-12-28T05:47:15;12.57;;;2.28;;
39032;SDS011;24794;51.982;5.878;2023-12-28T05:48:15;14.88;;;2.47;;
39032;SDS011;24794;51.982;5.878;2023-12-28T05:49:16;11.38;;;2.15;;
39032;SDS011;24794;51.982;5.878;2023-12-28T05:50:17;11.70;;;2.28;;
39032;SDS011;24794;51.982;5.878;2023-12-28T05:51:17;15.77;;;2.80;;
39032;SDS011;24794;51.982;5.878;2023-12-28T05:52:18;13.27;;;2.35;;
39032;SDS011;24794;51.982;5.878;2023-12-28T05:53:19;12.80;;;2.67;;
39032;SDS011;24794;51.982;5.878;2023-12-28T05:54:19;12.98;;;2.10;;
39032;SDS011;24794;51.982;5.878;2023-12-28T05:55:20;13.27;;;2.40;;
39032;SDS011;24794;51.982;5.878;2023-12-28T05:56:21;15.60;;;2.83;;
39032;SDS011;24794;51.982;5.878;2023-12-28T05:57:21;27.50;;;3.10;;
39032;SDS011;24794;51.982;5.878;2023-12-28T05:58:22;12.98;;;2.10;;
39032;SDS011;24794;51.982;5.878;2023-12-28T05:59:22;12.82;;;2.30;;
39032;SDS011;24794;51.982;5.878;2023-12-28T06:00:26;13.77;;;2.22;;
39032;SDS011;24794;51.982;5.878;2023-12-28T06:01:26;13.63;;;2.55;;
39032;SDS011;24794;51.982;5.878;2023-12-28T06:02:27;10.85;;;2.28;;
39032;SDS011;24794;51.982;5.878;2023-12-28T06:03:28;13.55;;;2.45;;
39032;SDS011;24794;51.982;5.878;2023-12-28T06:04:30;13.35;;;2.03;;
39032;SDS011;24794;51.982;5.878;2023-12-28T06:05:31;16.60;;;2.70;;
39032;SDS011;24794;51.982;5.878;2023-12-28T06:06:31;12.48;;;2.17;;
39032;SDS011;24794;51.982;5.878;2023-12-28T06:07:32;15.27;;;2.45;;
39032;SDS011;24794;51.982;5.878;2023-12-28T06:08:33;13.80;;;2.50;;